首页
METAR-TAF:

METAR-TAF

机场 :

西安咸阳国际机场

西安, 中华人民共和国

纬度: 34-26N, 经度: 108-45E, 海拔: 479米

当前天气观测

该预报发布于31分钟前的01:00 UTC
风速6节,风向东北
温度 5°C
湿度 87%
气压 1019 hPa
能見度: 2000
轻雾

METAR: ZLXY 130100Z 04003MPS 2000 BR NSC 05/03 Q1019 NOSIG

时间: 09:31 (01:31 UTC)

预报

该预报发布于6小时和9分钟前的19:22 UTC
预报有效从13日的 00点(UTC)到 13日的 24点(UTC)
风速6节,风向北转西北
能見度: 1200
轻雾
成为
从 13日的 03点(UTC)到 13日的 04点(UTC)
能見度: 2700
短暂存在
从 13日的 00点(UTC)到 13日的 03点(UTC)
能見度: 0600

TAF: ZLXY 121922Z 1300/1324 34003MPS 1200 BR NSC TX14/1307Z TN01/1323Z BECMG 1303/1304 2700 TEMPO 1300/1303 0600 FG

超过4000个机场的气象观测和天气预报(METAR&TAF报告)。

可查询的气象台以黄色和红色小点在地图上表示。

将鼠标移到小点上方,可查看气象台名称。

然后点击查看天气观测和预报。

如需切换地图:点击带黑十字的绿色按钮放大地图;点击带横线的绿色按钮缩小地图;或者点击绿色箭头查看邻近地区的地图。


METAR-TAF: